Time;durP1;ratioP1;P1;durP2;ratioP2;P2;SDS_P1;SDS_P2;PMS_P1;PMS_P2;Temp;Humidity;BMP_temperature;BMP_pressure;BME280_temperature;BME280_humidity;BME280_pressure;Samples;Min_cycle;Max_cycle;Signal;HPM_P1;HPM_P2
2022/08/19 00:00:27;;;;;;;6.50;5.70;;;;;;;17.35;100.00;95385.63;1014640;29;20690;-70
2022/08/19 00:00:57;;;;;;;6.88;5.80;;;;;;;17.45;100.00;95398.56;1018115;29;20031;-69
2022/08/19 00:01:29;;;;;;;5.65;5.13;;;;;;;17.43;100.00;95403.41;1013641;29;20032;-70
2022/08/19 00:01:59;;;;;;;5.70;5.20;;;;;;;17.40;100.00;95401.38;1014235;29;20604;-70
2022/08/19 00:02:30;;;;;;;5.68;5.07;;;;;;;17.34;100.00;95389.38;1013858;29;20028;-70
2022/08/19 00:03:00;;;;;;;5.47;4.93;;;;;;;17.40;100.00;95404.03;1026289;28;20658;-69
2022/08/19 00:03:31;;;;;;;5.70;5.07;;;;;;;17.38;100.00;95403.56;1025928;28;20030;-70
2022/08/19 00:04:02;;;;;;;5.45;4.95;;;;;;;17.34;100.00;95400.00;1023970;28;20031;-70
2022/08/19 00:04:35;;;;;;;5.78;5.10;;;;;;;17.30;100.00;95404.34;1021784;29;20027;-70
2022/08/19 00:05:06;;;;;;;5.85;5.03;;;;;;;17.34;100.00;95407.94;1022230;29;20362;-69
2022/08/19 00:05:37;;;;;;;5.32;4.82;;;;;;;17.36;100.00;95406.53;1018187;29;20031;-70
2022/08/19 00:06:07;;;;;;;6.95;5.78;;;;;;;17.36;100.00;95417.13;1018133;29;20024;-70
2022/08/19 00:06:38;;;;;;;5.38;4.82;;;;;;;17.37;100.00;95409.94;1018212;29;20107;-70
2022/08/19 00:07:09;;;;;;;6.20;5.60;;;;;;;17.36;100.00;95414.47;1018479;29;20562;-69
2022/08/19 00:07:41;;;;;;;8.27;5.57;;;;;;;17.38;100.00;95411.53;1026291;28;20051;-69
2022/08/19 00:08:11;;;;;;;5.93;5.32;;;;;;;17.32;100.00;95402.94;1030083;28;20073;-69
2022/08/19 00:08:42;;;;;;;6.30;5.70;;;;;;;17.37;100.00;95415.25;1029674;28;20654;-70
2022/08/19 00:09:14;;;;;;;5.72;5.22;;;;;;;17.36;100.00;95409.16;1022155;28;20019;-70
2022/08/19 00:09:45;;;;;;;5.28;4.78;;;;;;;17.36;100.00;95409.16;1026754;28;20118;-69
2022/08/19 00:10:15;;;;;;;7.55;4.97;;;;;;;17.36;100.00;95414.47;1030285;28;20034;-70
2022/08/19 00:10:47;;;;;;;6.28;5.68;;;;;;;17.38;100.00;95411.53;1030395;28;20023;-70
2022/08/19 00:11:18;;;;;;;12.07;5.30;;;;;;;17.33;100.00;95404.50;1029014;28;20432;-70
2022/08/19 00:11:49;;;;;;;5.97;5.28;;;;;;;17.36;100.00;95411.06;1026633;28;20817;-70
2022/08/19 00:12:20;;;;;;;6.35;5.53;;;;;;;17.37;100.00;95410.75;1026174;28;20030;-70
2022/08/19 00:12:50;;;;;;;5.95;5.45;;;;;;;17.34;100.00;95402.66;1022104;29;20407;-71
2022/08/19 00:13:21;;;;;;;7.78;5.32;;;;;;;17.37;100.00;95409.94;1010508;29;20029;-70
2022/08/19 00:13:52;;;;;;;5.65;5.15;;;;;;;17.38;100.00;95412.31;1022175;29;20030;-70
2022/08/19 00:14:23;;;;;;;7.43;5.25;;;;;;;17.38;100.00;95406.22;1022386;28;20050;-71
2022/08/19 00:14:54;;;;;;;5.90;5.00;;;;;;;17.37;100.00;95412.59;1026210;28;20057;-70
2022/08/19 00:15:24;;;;;;;5.90;5.40;;;;;;;17.38;100.00;95406.22;1017987;29;20114;-70
2022/08/19 00:15:55;;;;;;;6.88;6.13;;;;;;;17.37;100.00;95407.28;1016393;29;20130;-70
2022/08/19 00:16:26;;;;;;;7.25;5.57;;;;;;;17.38;100.00;95416.84;1014333;29;20508;-70
2022/08/19 00:16:57;;;;;;;5.60;5.10;;;;;;;17.36;100.00;95419.00;1018154;29;20038;-70
2022/08/19 00:17:27;;;;;;;5.13;4.65;;;;;;;17.33;100.00;95414.31;1022641;28;20114;-69
2022/08/19 00:17:58;;;;;;;5.63;5.10;;;;;;;17.35;100.00;95418.22;1022182;29;20031;-70
2022/08/19 00:18:28;;;;;;;5.53;4.88;;;;;;;17.32;100.00;95420.72;1018339;29;20043;-69
2022/08/19 00:18:59;;;;;;;6.00;5.40;;;;;;;17.33;100.00;95420.41;1018037;29;20063;-70
2022/08/19 00:19:29;;;;;;;6.00;5.40;;;;;;;17.16;100.00;95399.97;1018247;28;20028;-70
2022/08/19 00:20:00;;;;;;;5.53;5.03;;;;;;;17.35;100.00;95420.09;1022185;29;20532;-70
2022/08/19 00:20:30;;;;;;;7.25;5.75;;;;;;;17.36;100.00;95429.63;1022504;28;20034;-70
2022/08/19 00:21:01;;;;;;;5.35;4.85;;;;;;;17.30;100.00;95421.03;1029801;28;20026;-70
2022/08/19 00:21:31;;;;;;;5.55;5.05;;;;;;;17.36;100.00;95422.44;1029555;28;20022;-70
2022/08/19 00:22:02;;;;;;;5.20;4.70;;;;;;;17.38;100.00;95433.53;1030119;28;20034;-70
2022/08/19 00:22:33;;;;;;;6.60;5.30;;;;;;;17.32;100.00;95420.72;1034409;28;20033;-70
2022/08/19 00:23:03;;;;;;;5.68;5.18;;;;;;;17.36;100.00;95425.09;1029776;28;20061;-70
2022/08/19 00:23:35;;;;;;;5.68;5.18;;;;;;;17.37;100.00;95420.56;1030125;28;20034;-70
2022/08/19 00:24:10;;;;;;;5.97;5.38;;;;;;;17.39;100.00;95421.81;1026108;28;20452;-70
2022/08/19 00:24:41;;;;;;;7.22;5.15;;;;;;;17.40;100.00;95420.75;1021940;29;20031;-70
2022/08/19 00:25:11;;;;;;;5.43;4.93;;;;;;;17.41;100.00;95421.50;1017965;29;20036;-71
2022/08/19 00:25:41;;;;;;;5.95;5.25;;;;;;;17.39;100.00;95421.81;1014314;29;20075;-69
2022/08/19 00:26:12;;;;;;;5.35;4.95;;;;;;;17.39;100.00;95419.16;1016628;28;20051;-70
2022/08/19 00:26:43;;;;;;;6.10;5.45;;;;;;;17.35;100.00;95401.53;1025450;28;20109;-70
2022/08/19 00:27:13;;;;;;;6.13;5.10;;;;;;;17.38;100.00;95416.84;1022087;28;20095;-70
2022/08/19 00:27:44;;;;;;;5.05;4.65;;;;;;;17.38;100.00;95422.13;1027143;28;20381;-70
2022/08/19 00:28:14;;;;;;;7.72;4.65;;;;;;;17.40;100.00;95419.94;1026021;28;20038;-69
2022/08/19 00:28:45;;;;;;;5.75;5.00;;;;;;;17.40;100.00;95426.03;1022196;28;20027;-69
2022/08/19 00:29:17;;;;;;;6.70;4.93;;;;;;;17.41;100.00;95422.28;1021919;29;20045;-70
2022/08/19 00:29:47;;;;;;;5.13;4.63;;;;;;;17.41;100.00;95426.81;1021948;28;20031;-69
2022/08/19 00:30:18;;;;;;;10.30;5.30;;;;;;;17.44;100.00;95420.88;1022579;28;20050;-70
2022/08/19 00:30:48;;;;;;;5.57;5.07;;;;;;;17.41;100.00;95422.28;1026449;28;20086;-69
2022/08/19 00:31:19;;;;;;;6.63;5.20;;;;;;;17.41;100.00;95426.81;1029275;28;20038;-69
2022/08/19 00:31:52;;;;;;;8.57;5.32;;;;;;;17.39;100.00;95419.16;1034116;28;20033;-69
2022/08/19 00:32:23;;;;;;;5.30;4.82;;;;;;;17.41;100.00;95421.50;1030158;28;20551;-69
2022/08/19 00:32:55;;;;;;;6.80;5.38;;;;;;;17.36;100.00;95417.13;1025936;28;20066;-69
2022/08/19 00:33:25;;;;;;;5.45;4.80;;;;;;;17.36;100.00;95413.69;1026050;28;20209;-71
2022/08/19 00:33:56;;;;;;;6.65;4.70;;;;;;;17.42;100.00;95428.38;1029975;28;20629;-70
2022/08/19 00:34:29;;;;;;;4.97;4.57;;;;;;;17.43;100.00;95424.63;1030111;28;20034;-70
2022/08/19 00:35:00;;;;;;;5.80;5.30;;;;;;;17.27;100.00;95402.31;1027668;28;20109;-70
2022/08/19 00:35:30;;;;;;;5.40;4.90;;;;;;;17.40;100.00;95419.94;1022212;28;20027;-70
2022/08/19 00:36:04;;;;;;;5.15;4.60;;;;;;;17.36;100.00;95413.69;1022037;28;20038;-71
2022/08/19 00:36:34;;;;;;;5.20;4.70;;;;;;;17.35;100.00;95412.94;1022077;29;20027;-69
2022/08/19 00:37:05;;;;;;;7.32;5.63;;;;;;;17.39;100.00;95418.38;1021995;29;20096;-69
2022/08/19 00:37:35;;;;;;;5.85;5.25;;;;;;;17.41;100.00;95426.81;1022558;28;20063;-69
2022/08/19 00:38:06;;;;;;;5.25;4.75;;;;;;;17.41;100.00;95426.81;1021864;29;20556;-69
2022/08/19 00:38:38;;;;;;;6.88;4.32;;;;;;;17.41;100.00;95422.28;1022224;28;20035;-69
2022/08/19 00:39:08;;;;;;;5.22;4.47;;;;;;;17.39;100.00;95421.81;1025632;28;20089;-70
2022/08/19 00:39:39;;;;;;;5.22;4.47;;;;;;;17.41;100.00;95421.50;1025836;28;20550;-71
2022/08/19 00:40:11;;;;;;;5.20;4.70;;;;;;;17.36;100.00;95416.34;1026042;28;20031;-69
2022/08/19 00:40:46;;;;;;;4.53;4.13;;;;;;;17.40;100.00;95426.03;1018344;29;20028;-70
2022/08/19 00:41:20;;;;;;;4.40;4.07;;;;;;;17.37;100.00;95431.97;1018104;28;20248;-69
2022/08/19 00:41:51;;;;;;;4.97;4.47;;;;;;;17.34;100.00;95431.81;1022051;29;20023;-69
2022/08/19 00:42:22;;;;;;;5.22;4.40;;;;;;;17.35;100.00;95430.72;1023531;28;20011;-69
2022/08/19 00:42:55;;;;;;;4.95;4.43;;;;;;;17.27;100.00;95416.38;1026635;28;20027;-69
2022/08/19 00:43:26;;;;;;;4.80;4.13;;;;;;;17.22;100.00;95413.88;1022141;28;20030;-70
2022/08/19 00:44:12;;;;;;;4.53;4.13;;;;;;;17.32;100.00;95420.72;1020941;29;20102;-69
2022/08/19 00:44:43;;;;;;;4.90;4.40;;;;;;;17.32;100.00;95429.47;1015957;29;20505;-69
2022/08/19 00:45:23;;;;;;;4.40;4.00;;;;;;;17.26;100.00;95414.03;1022050;29;20039;-71
2022/08/19 00:45:53;;;;;;;4.07;3.78;;;;;;;17.34;100.00;95429.16;1021548;28;20055;-70
2022/08/19 00:46:24;;;;;;;4.40;4.00;;;;;;;17.33;100.00;95419.63;1022366;28;20043;-70
2022/08/19 00:46:55;;;;;;;4.65;4.25;;;;;;;17.31;100.00;95411.22;1022063;29;20035;-69
2022/08/19 00:47:26;;;;;;;3.72;3.20;;;;;;;17.34;100.00;95421.97;1022030;29;20071;-69
2022/08/19 00:47:56;;;;;;;4.75;3.75;;;;;;;17.35;100.00;95422.75;1022137;28;20034;-69
2022/08/19 00:48:27;;;;;;;4.72;3.83;;;;;;;17.34;100.00;95416.69;1029404;28;20038;-69
2022/08/19 00:48:57;;;;;;;3.80;3.50;;;;;;;17.36;100.00;95413.69;1025790;28;20424;-70
2022/08/19 00:49:37;;;;;;;4.15;3.75;;;;;;;17.38;100.00;95414.19;1022069;29;20034;-70
2022/08/19 00:50:08;;;;;;;3.90;3.50;;;;;;;17.37;100.00;95409.94;1018052;29;20776;-70
2022/08/19 00:50:40;;;;;;;3.53;3.22;;;;;;;17.39;100.00;95413.06;1018410;29;20019;-71
2022/08/19 00:51:10;;;;;;;4.03;3.70;;;;;;;17.36;100.00;95408.41;1022983;28;20099;-70
2022/08/19 00:51:41;;;;;;;4.03;3.67;;;;;;;17.38;100.00;95411.53;1021207;29;20046;-70
2022/08/19 00:52:14;;;;;;;4.15;3.75;;;;;;;17.39;100.00;95413.06;1018540;28;20019;-70
2022/08/19 00:52:46;;;;;;;3.75;3.35;;;;;;;17.37;100.00;95407.28;1015087;29;20016;-70
2022/08/19 00:53:19;;;;;;;3.60;3.30;;;;;;;17.35;100.00;95410.28;1014995;29;20039;-70
2022/08/19 00:53:50;;;;;;;3.30;3.00;;;;;;;17.31;100.00;95405.91;1022857;29;20665;-70
2022/08/19 00:54:21;;;;;;;5.70;3.22;;;;;;;17.30;100.00;95405.13;1023411;28;20093;-70
2022/08/19 00:54:52;;;;;;;4.00;2.67;;;;;;;17.31;100.00;95397.97;1023506;28;20102;-70
2022/08/19 00:55:24;;;;;;;6.10;2.95;;;;;;;17.25;100.00;95399.22;1018679;29;20020;-70
2022/08/19 00:55:56;;;;;;;3.25;2.92;;;;;;;17.33;100.00;95407.13;1019077;29;20022;-70
2022/08/19 00:56:26;;;;;;;3.72;3.30;;;;;;;17.25;100.00;95401.84;1019420;29;20015;-70
2022/08/19 00:56:57;;;;;;;3.47;3.17;;;;;;;17.30;100.00;95420.25;1022910;29;20040;-70
2022/08/19 00:57:35;;;;;;;8.32;4.20;;;;;;;17.27;100.00;95410.25;1026525;28;20025;-70
2022/08/19 00:58:07;;;;;;;4.00;3.60;;;;;;;17.28;100.00;95409.97;1022957;29;20019;-70
2022/08/19 00:58:39;;;;;;;6.45;3.85;;;;;;;17.24;100.00;95403.75;1026696;28;20097;-70
2022/08/19 00:59:10;;;;;;;5.80;3.70;;;;;;;17.23;100.00;95406.69;1022855;28;20596;-70
2022/08/19 00:59:41;;;;;;;8.75;4.13;;;;;;;17.26;100.00;95406.06;1018959;29;20087;-73
2022/08/19 01:00:15;;;;;;;10.27;5.07;;;;;;;17.23;100.00;95404.03;1015301;29;20481;-70
2022/08/19 01:00:46;;;;;;;7.07;4.38;;;;;;;17.18;100.00;95408.41;1022498;28;20023;-70
2022/08/19 01:01:16;;;;;;;5.35;4.78;;;;;;;17.17;100.00;95412.16;1026863;28;20050;-70
2022/08/19 01:01:47;;;;;;;5.82;4.50;;;;;;;17.11;100.00;95413.41;1026795;28;20386;-71
2022/08/19 01:02:17;;;;;;;6.65;4.63;;;;;;;17.04;100.00;95410.44;1022890;28;20034;-71
2022/08/19 01:02:48;;;;;;;6.28;4.95;;;;;;;17.00;100.00;95414.81;1022750;29;20489;-71
2022/08/19 01:03:19;;;;;;;12.00;5.50;;;;;;;16.94;100.00;95411.53;1018861;29;20023;-71
2022/08/19 01:03:50;;;;;;;7.75;5.60;;;;;;;16.96;100.00;95411.19;1018753;29;20066;-71
2022/08/19 01:04:20;;;;;;;7.15;5.07;;;;;;;16.90;100.00;95407.13;1026698;28;20029;-71
2022/08/19 01:04:50;;;;;;;8.65;5.70;;;;;;;16.94;100.00;95408.88;1022681;28;20031;-70
2022/08/19 01:05:23;;;;;;;8.85;6.05;;;;;;;16.95;100.00;95412.31;1022796;29;20070;-70
2022/08/19 01:05:54;;;;;;;8.90;6.10;;;;;;;16.95;100.00;95414.94;1023481;28;20537;-71
2022/08/19 01:06:25;;;;;;;13.68;6.75;;;;;;;16.96;100.00;95414.63;1024370;28;20046;-70
2022/08/19 01:06:56;;;;;;;9.10;6.32;;;;;;;16.97;100.00;95412.78;1022675;29;20059;-70
2022/08/19 01:07:26;;;;;;;7.55;5.43;;;;;;;16.97;100.00;95415.44;1022741;29;20033;-71
2022/08/19 01:07:58;;;;;;;9.23;6.00;;;;;;;16.99;100.00;95415.88;1022805;29;20502;-71
2022/08/19 01:08:29;;;;;;;12.27;6.50;;;;;;;16.97;100.00;95412.78;1018844;29;20062;-70
2022/08/19 01:08:59;;;;;;;8.13;5.70;;;;;;;16.93;100.00;95411.81;1022597;29;20681;-70
2022/08/19 01:09:30;;;;;;;9.88;6.30;;;;;;;16.92;100.00;95413.69;1026992;28;20030;-71
2022/08/19 01:10:00;;;;;;;8.13;5.55;;;;;;;16.97;100.00;95418.09;1026774;28;20030;-71
2022/08/19 01:10:37;;;;;;;7.95;5.25;;;;;;;16.92;100.00;95416.34;1022849;29;20055;-71
2022/08/19 01:11:07;;;;;;;8.75;6.30;;;;;;;16.96;100.00;95421.81;1024731;28;20094;-71
2022/08/19 01:11:39;;;;;;;9.93;6.03;;;;;;;16.99;100.00;95420.41;1023691;28;20035;-71
2022/08/19 01:12:10;;;;;;;11.60;6.75;;;;;;;17.00;100.00;95427.25;1018829;29;20079;-70
2022/08/19 01:12:40;;;;;;;9.23;6.40;;;;;;;16.99;100.00;95428.38;1022506;28;20062;-71
2022/08/19 01:13:11;;;;;;;7.25;5.28;;;;;;;16.91;100.00;95430.69;1026539;28;20023;-70
2022/08/19 01:13:42;;;;;;;6.13;5.30;;;;;;;16.87;100.00;95424.47;1022875;29;20571;-71
2022/08/19 01:14:12;;;;;;;9.98;5.53;;;;;;;16.92;100.00;95429.59;1014782;29;20036;-71
2022/08/19 01:14:43;;;;;;;10.02;6.50;;;;;;;16.95;100.00;95430.84;1026836;28;20058;-71
2022/08/19 01:15:16;;;;;;;7.53;5.60;;;;;;;16.94;100.00;95434.59;1018548;29;20035;-71
2022/08/19 01:15:50;;;;;;;9.93;6.13;;;;;;;16.95;100.00;95431.63;1014809;29;20028;-71
2022/08/19 01:16:23;;;;;;;10.10;6.38;;;;;;;16.89;100.00;95432.09;1018768;29;20027;-71
2022/08/19 01:16:54;;;;;;;8.27;6.03;;;;;;;16.90;100.00;95433.63;1019008;29;20102;-71
2022/08/19 01:17:24;;;;;;;9.23;5.75;;;;;;;16.88;100.00;95428.66;1018558;29;20039;-70
2022/08/19 01:17:55;;;;;;;7.80;5.80;;;;;;;16.85;100.00;95416.03;1026761;28;20443;-70
2022/08/19 01:18:25;;;;;;;8.90;6.82;;;;;;;16.91;100.00;95427.28;1016245;29;20043;-67
2022/08/19 01:18:58;;;;;;;11.68;6.85;;;;;;;16.95;100.00;95430.84;1019017;28;20047;-71
2022/08/19 01:19:35;;;;;;;11.45;6.88;;;;;;;16.93;100.00;95423.22;1027026;28;20027;-71
2022/08/19 01:20:09;;;;;;;10.55;6.28;;;;;;;16.91;100.00;95420.09;1024135;28;20079;-70
2022/08/19 01:20:40;;;;;;;8.75;6.30;;;;;;;16.95;100.00;95425.56;1025223;28;20126;-70
2022/08/19 01:21:15;;;;;;;11.07;6.78;;;;;;;16.91;100.00;95421.97;1021136;28;20560;-70
2022/08/19 01:22:12;;;;;;;8.00;5.85;;;;;;;16.93;100.00;95423.22;1026689;28;20103;-71
2022/08/19 01:22:46;;;;;;;7.22;5.15;;;;;;;16.94;100.00;95429.31;1022765;28;20106;-71
2022/08/19 01:23:17;;;;;;;12.15;6.85;;;;;;;16.86;100.00;95414.16;1026172;28;20039;-70
2022/08/19 01:23:47;;;;;;;9.95;6.57;;;;;;;16.87;100.00;95413.09;1009433;29;20115;-72
2022/08/19 01:24:18;;;;;;;14.95;6.97;;;;;;;16.94;100.00;95427.44;1023962;28;20552;-71
2022/08/19 01:24:48;;;;;;;9.15;6.72;;;;;;;16.89;100.00;95421.50;1022766;29;20778;-71
2022/08/19 01:25:21;;;;;;;10.07;7.18;;;;;;;16.88;100.00;95425.25;1018634;28;20146;-70
2022/08/19 01:25:54;;;;;;;12.93;7.93;;;;;;;16.90;100.00;95428.34;1011346;29;20024;-71
2022/08/19 01:26:24;;;;;;;11.15;7.90;;;;;;;16.92;100.00;95431.47;1019290;29;20028;-71
2022/08/19 01:26:55;;;;;;;10.82;7.55;;;;;;;16.93;100.00;95430.38;1019401;29;20028;-71
2022/08/19 01:27:25;;;;;;;11.77;7.88;;;;;;;16.91;100.00;95425.41;1023588;28;20043;-71
2022/08/19 01:27:56;;;;;;;10.77;7.63;;;;;;;16.92;100.00;95431.47;1026309;28;20038;-70
2022/08/19 01:28:27;;;;;;;14.68;9.43;;;;;;;16.94;100.00;95424.00;1026681;28;20848;-70
2022/08/19 01:28:58;;;;;;;12.75;9.02;;;;;;;16.91;100.00;95420.09;1022470;29;20094;-70
2022/08/19 01:29:28;;;;;;;13.63;9.02;;;;;;;16.91;100.00;95424.63;1022814;28;20472;-70
2022/08/19 01:29:59;;;;;;;9.65;7.88;;;;;;;16.93;100.00;95425.88;1022681;28;20039;-70
2022/08/19 01:30:31;;;;;;;12.65;8.20;;;;;;;16.94;100.00;95430.06;1026738;28;20039;-71
2022/08/19 01:31:02;;;;;;;16.23;9.40;;;;;;;16.90;100.00;95423.84;1027041;28;20466;-70
2022/08/19 01:31:33;;;;;;;11.77;8.45;;;;;;;16.94;100.00;95429.31;1026795;28;20027;-70
2022/08/19 01:32:03;;;;;;;12.88;9.00;;;;;;;16.90;100.00;95425.69;1026526;28;20026;-71
2022/08/19 01:32:34;;;;;;;15.15;8.65;;;;;;;16.88;100.00;95430.53;1026591;28;20018;-71
2022/08/19 01:33:05;;;;;;;14.45;9.25;;;;;;;16.91;100.00;95424.63;1022741;28;20023;-70
2022/08/19 01:33:36;;;;;;;17.48;10.18;;;;;;;16.91;100.00;95427.28;1029904;28;20031;-70
2022/08/19 01:34:06;;;;;;;15.18;9.48;;;;;;;16.93;100.00;95428.53;1030603;28;20122;-70
2022/08/19 01:34:37;;;;;;;15.30;10.15;;;;;;;16.92;100.00;95426.94;1026561;28;20030;-70
2022/08/19 01:35:08;;;;;;;12.05;8.90;;;;;;;16.88;100.00;95431.31;1023119;28;20107;-70
2022/08/19 01:35:38;;;;;;;11.98;8.60;;;;;;;16.90;100.00;95425.69;1022912;28;20147;-71
2022/08/19 01:36:13;;;;;;;12.77;8.80;;;;;;;16.88;100.00;95435.84;1018126;29;20090;-71
2022/08/19 01:36:48;;;;;;;16.17;9.63;;;;;;;16.85;100.00;95423.97;1018746;29;20055;-70
2022/08/19 01:37:19;;;;;;;17.17;10.05;;;;;;;16.85;100.00;95426.63;1010856;29;20032;-70
2022/08/19 01:37:51;;;;;;;11.13;8.43;;;;;;;16.88;100.00;95430.53;1020156;28;20027;-70
2022/08/19 01:38:24;;;;;;;12.38;9.00;;;;;;;16.82;100.00;95421.16;1026607;28;20102;-70
2022/08/19 01:38:54;;;;;;;15.45;9.38;;;;;;;16.88;100.00;95436.63;1023242;28;20023;-70
2022/08/19 01:39:25;;;;;;;10.10;7.57;;;;;;;16.83;100.00;95433.31;1022029;28;20046;-70
2022/08/19 01:39:55;;;;;;;11.70;7.90;;;;;;;16.86;100.00;95438.00;1019249;29;20041;-71
2022/08/19 01:40:29;;;;;;;14.05;8.70;;;;;;;16.85;100.00;95433.81;1018634;29;20067;-71
2022/08/19 01:41:00;;;;;;;12.55;7.82;;;;;;;16.85;100.00;95442.53;1019808;28;20139;-71
2022/08/19 01:41:30;;;;;;;12.75;8.82;;;;;;;16.85;100.00;95436.47;1022286;28;20032;-70
2022/08/19 01:42:02;;;;;;;14.82;9.13;;;;;;;16.87;100.00;95439.59;1023179;28;20027;-70
2022/08/19 01:42:34;;;;;;;11.63;7.72;;;;;;;16.88;100.00;95441.13;1022610;28;20122;-70
2022/08/19 01:43:05;;;;;;;13.13;8.88;;;;;;;16.86;100.00;95433.47;1023102;28;20637;-71
2022/08/19 01:43:36;;;;;;;12.80;8.85;;;;;;;16.87;100.00;95443.00;1023207;28;20086;-70
2022/08/19 01:44:07;;;;;;;16.80;9.98;;;;;;;16.87;100.00;95439.59;1023067;28;20036;-70
2022/08/19 01:44:39;;;;;;;12.40;8.52;;;;;;;16.87;100.00;95436.94;1018312;29;20042;-70
2022/08/19 01:45:10;;;;;;;12.77;8.75;;;;;;;16.81;100.00;95440.81;1015629;29;20047;-71
2022/08/19 01:45:40;;;;;;;10.60;8.00;;;;;;;16.83;100.00;95449.22;1018594;29;20453;-70
2022/08/19 01:46:11;;;;;;;12.82;8.52;;;;;;;16.83;100.00;95441.28;1023052;28;20031;-71
2022/08/19 01:46:42;;;;;;;12.40;9.00;;;;;;;16.86;100.00;95449.38;1022556;29;20206;-70
2022/08/19 01:47:12;;;;;;;16.02;9.55;;;;;;;16.88;100.00;95449.09;1015332;28;20072;-71
2022/08/19 01:47:43;;;;;;;18.63;11.23;;;;;;;16.91;100.00;95451.13;1022720;29;20102;-70
2022/08/19 01:48:14;;;;;;;16.10;9.45;;;;;;;16.77;100.00;95434.56;1022685;28;20038;-71
2022/08/19 01:48:44;;;;;;;11.48;8.40;;;;;;;16.83;100.00;95454.53;1026602;28;20026;-71
2022/08/19 01:49:17;;;;;;;12.48;9.10;;;;;;;16.80;100.00;95444.53;1026726;28;20066;-70
2022/08/19 01:49:47;;;;;;;12.45;9.50;;;;;;;16.84;100.00;95450.81;1022801;29;20055;-70
2022/08/19 01:50:18;;;;;;;13.80;9.85;;;;;;;16.83;100.00;95446.56;1025722;28;20501;-70
2022/08/19 01:50:48;;;;;;;14.30;9.52;;;;;;;16.85;100.00;95452.34;1026615;28;20035;-71
2022/08/19 01:51:19;;;;;;;14.48;9.88;;;;;;;16.84;100.00;95445.50;1026049;28;20035;-70
2022/08/19 01:51:49;;;;;;;15.15;10.02;;;;;;;16.84;100.00;95450.81;1026740;28;20023;-71
2022/08/19 01:52:20;;;;;;;16.00;10.50;;;;;;;16.84;100.00;95445.50;1022648;28;20691;-70
2022/08/19 01:52:50;;;;;;;14.40;9.98;;;;;;;16.80;100.00;95434.75;1022718;28;20059;-69
2022/08/19 01:53:20;;;;;;;16.30;10.95;;;;;;;16.82;100.00;95445.03;1021703;28;20031;-70
2022/08/19 01:53:51;;;;;;;15.40;10.48;;;;;;;16.85;100.00;95433.81;1018972;28;20146;-70
2022/08/19 01:54:22;;;;;;;12.95;9.95;;;;;;;16.84;100.00;95442.84;1015501;29;20039;-69
2022/08/19 01:54:53;;;;;;;12.88;9.73;;;;;;;16.82;100.00;95437.06;1016864;29;20131;-70
2022/08/19 01:55:23;;;;;;;21.92;12.82;;;;;;;16.83;100.00;95439.41;1021278;28;20030;-71
2022/08/19 01:55:54;;;;;;;19.38;12.25;;;;;;;16.86;100.00;95444.09;1019038;29;20059;-70
2022/08/19 01:56:25;;;;;;;20.42;11.55;;;;;;;16.80;100.00;95439.25;1022990;28;20031;-70
2022/08/19 01:57:02;;;;;;;19.48;11.02;;;;;;;16.85;100.00;95437.22;1026395;28;20039;-70
2022/08/19 01:57:33;;;;;;;16.50;11.32;;;;;;;16.80;100.00;95439.25;1018802;29;20039;-70
2022/08/19 01:58:04;;;;;;;21.77;12.73;;;;;;;16.88;100.00;95449.88;1018595;29;20457;-71
2022/08/19 01:58:39;;;;;;;19.60;12.80;;;;;;;16.92;100.00;95452.69;1018665;29;20038;-70
2022/08/19 01:59:12;;;;;;;13.60;10.27;;;;;;;16.85;100.00;95444.41;1015366;29;20028;-69
2022/08/19 01:59:43;;;;;;;17.75;12.18;;;;;;;16.86;100.00;95448.59;1016958;29;20019;-70
2022/08/19 02:00:15;;;;;;;19.15;13.52;;;;;;;16.81;100.00;95446.13;1022546;29;20031;-70
2022/08/19 02:00:46;;;;;;;14.98;11.75;;;;;;;16.73;100.00;95439.66;1022449;29;20031;-70
2022/08/19 02:01:17;;;;;;;15.02;11.45;;;;;;;16.83;100.00;95455.28;1017787;29;20414;-70
2022/08/19 02:01:47;;;;;;;15.07;11.27;;;;;;;16.83;100.00;95454.53;1026563;28;20038;-70
2022/08/19 02:02:18;;;;;;;18.48;12.63;;;;;;;16.88;100.00;95452.50;1026415;28;20029;-70
2022/08/19 02:02:49;;;;;;;18.42;12.20;;;;;;;16.90;100.00;95460.16;1026616;28;20061;-71
2022/08/19 02:03:19;;;;;;;20.25;12.95;;;;;;;16.89;100.00;95462.03;1026085;28;20030;-70
2022/08/19 02:03:53;;;;;;;17.88;12.15;;;;;;;16.86;100.00;95470.59;1018321;28;20059;-70
2022/08/19 02:04:25;;;;;;;25.13;14.45;;;;;;;16.89;100.00;95469.97;1022369;29;20138;-70
2022/08/19 02:04:55;;;;;;;22.25;13.75;;;;;;;16.91;100.00;95470.44;1019462;29;20039;-70
2022/08/19 02:05:26;;;;;;;22.38;14.23;;;;;;;16.91;100.00;95473.09;1019207;29;20067;-70
2022/08/19 02:05:59;;;;;;;15.27;12.00;;;;;;;16.87;100.00;95472.16;1023385;28;20038;-70
2022/08/19 02:06:29;;;;;;;22.00;14.23;;;;;;;16.93;100.00;95480.72;1023284;28;20039;-70
2022/08/19 02:07:00;;;;;;;19.02;13.18;;;;;;;16.85;100.00;95473.56;1026655;28;20042;-70
2022/08/19 02:07:32;;;;;;;14.23;11.65;;;;;;;16.84;100.00;95477.31;1026173;28;20047;-70
2022/08/19 02:08:03;;;;;;;17.25;13.25;;;;;;;16.86;100.00;95481.19;1026713;28;20652;-72
2022/08/19 02:08:35;;;;;;;23.25;14.57;;;;;;;16.81;100.00;95473.41;1026836;28;20034;-70
2022/08/19 02:09:06;;;;;;;21.70;14.82;;;;;;;16.87;100.00;95477.47;1026935;28;20015;-70
2022/08/19 02:09:36;;;;;;;23.05;13.65;;;;;;;16.93;100.00;95488.69;1022111;29;20129;-70
2022/08/19 02:10:09;;;;;;;20.30;13.48;;;;;;;16.88;100.00;95483.53;1018633;29;20038;-71
2022/08/19 02:10:41;;;;;;;17.30;12.18;;;;;;;16.84;100.00;95490.56;1022954;28;20051;-70
2022/08/19 02:11:19;;;;;;;24.70;15.05;;;;;;;16.80;100.00;95473.69;1027104;28;20058;-70
2022/08/19 02:11:50;;;;;;;23.50;14.43;;;;;;;16.87;100.00;95482.00;1026657;28;20189;-70
2022/08/19 02:12:21;;;;;;;28.73;16.15;;;;;;;16.87;100.00;95482.78;1025092;28;20107;-70
2022/08/19 02:12:51;;;;;;;15.57;12.43;;;;;;;16.84;100.00;95479.94;1023845;28;20031;-70
2022/08/19 02:13:22;;;;;;;31.02;15.80;;;;;;;16.87;100.00;95472.16;1023066;28;20031;-70
2022/08/19 02:13:53;;;;;;;26.20;16.35;;;;;;;16.87;100.00;95477.47;1030601;28;20587;-71
2022/08/19 02:14:24;;;;;;;26.92;15.93;;;;;;;16.88;100.00;95473.72;1026415;28;20027;-70
2022/08/19 02:14:54;;;;;;;17.23;13.02;;;;;;;16.85;100.00;95470.91;1026935;28;20035;-70
2022/08/19 02:15:25;;;;;;;25.20;15.35;;;;;;;16.86;100.00;95467.94;1030523;28;20418;-69
2022/08/19 02:15:56;;;;;;;18.55;13.95;;;;;;;16.83;100.00;95460.59;1026328;28;20066;-70
2022/08/19 02:16:26;;;;;;;21.02;14.65;;;;;;;16.84;100.00;95464.06;1022512;29;20151;-70
2022/08/19 02:16:57;;;;;;;21.27;14.30;;;;;;;16.83;100.00;95460.59;1022620;28;20074;-70
2022/08/19 02:17:28;;;;;;;22.20;14.57;;;;;;;16.75;100.00;95452.66;1022471;28;20035;-69
2022/08/19 02:17:59;;;;;;;22.00;14.93;;;;;;;16.77;100.00;95456.56;1018774;29;20032;-70
2022/08/19 02:18:29;;;;;;;21.77;14.77;;;;;;;16.83;100.00;95459.81;1022449;29;20512;-70
2022/08/19 02:19:02;;;;;;;24.35;15.50;;;;;;;16.85;100.00;95462.97;1018814;29;20027;-70
2022/08/19 02:19:33;;;;;;;20.77;14.77;;;;;;;16.76;100.00;95446.25;1019520;28;20062;-70
2022/08/19 02:20:04;;;;;;;24.17;15.05;;;;;;;16.82;100.00;95458.28;1022487;29;20587;-70
2022/08/19 02:20:35;;;;;;;19.05;14.23;;;;;;;16.80;100.00;95452.50;1023039;28;20046;-70
2022/08/19 02:21:06;;;;;;;29.48;17.92;;;;;;;16.79;100.00;95458.88;1026422;28;20512;-70
2022/08/19 02:21:37;;;;;;;27.40;16.73;;;;;;;16.73;100.00;95450.25;1030494;28;20085;-70
2022/08/19 02:22:07;;;;;;;25.50;16.95;;;;;;;16.81;100.00;95459.38;1030096;28;20070;-70
2022/08/19 02:22:41;;;;;;;26.98;17.65;;;;;;;16.79;100.00;95448.28;1026379;28;20073;-69
2022/08/19 02:23:11;;;;;;;20.67;15.02;;;;;;;16.81;100.00;95456.72;1026430;28;20029;-70
2022/08/19 02:23:42;;;;;;;23.88;16.85;;;;;;;16.83;100.00;95465.13;1022503;29;20529;-70
2022/08/19 02:24:12;;;;;;;27.33;16.33;;;;;;;16.80;100.00;95468.38;1014453;29;20111;-69
2022/08/19 02:24:43;;;;;;;21.25;14.82;;;;;;;16.76;100.00;95464.81;1026334;28;20034;-69
2022/08/19 02:25:14;;;;;;;23.02;16.13;;;;;;;16.81;100.00;95465.44;1026760;28;20101;-70